createdAt,value
2022-12-04T00:01:13.433Z,24.60
2022-12-04T00:07:27.967Z,24.90
2022-12-04T00:13:39.061Z,24.90
2022-12-04T00:19:56.293Z,24.70
2022-12-04T00:26:07.726Z,24.60
2022-12-04T00:32:16.490Z,24.50
2022-12-04T00:38:29.861Z,24.40
2022-12-04T00:44:39.607Z,24.40
2022-12-04T00:50:53.894Z,24.40
2022-12-04T00:57:06.913Z,24.60
2022-12-04T01:03:18.387Z,24.90
2022-12-04T01:09:29.874Z,25.00
2022-12-04T01:15:45.077Z,24.80
2022-12-04T01:21:57.550Z,24.60
2022-12-04T01:28:11.430Z,24.50
2022-12-04T01:34:21.450Z,24.40
2022-12-04T01:40:31.833Z,24.30
2022-12-04T01:46:45.837Z,24.20
2022-12-04T01:52:57.909Z,24.20
2022-12-04T01:59:08.460Z,24.20
2022-12-04T02:05:21.372Z,24.10
2022-12-04T02:11:33.895Z,24.00
2022-12-04T02:17:48.627Z,23.90
2022-12-04T02:24:19.986Z,23.90
2022-12-04T02:30:32.722Z,23.80
2022-12-04T02:36:47.819Z,23.70
2022-12-04T02:43:02.449Z,23.70
2022-12-04T02:49:15.978Z,23.60
2022-12-04T02:55:28.474Z,23.50
2022-12-04T03:01:43.393Z,23.50
2022-12-04T03:07:54.286Z,23.50
2022-12-04T03:14:05.751Z,23.40
2022-12-04T03:20:19.529Z,23.30
2022-12-04T03:26:31.269Z,23.30
2022-12-04T03:32:46.439Z,23.20
2022-12-04T03:38:59.021Z,23.20
2022-12-04T03:45:15.851Z,23.20
2022-12-04T03:51:27.365Z,23.10
2022-12-04T03:57:40.419Z,23.10
2022-12-04T04:03:56.087Z,23.10
2022-12-04T04:10:13.043Z,23.00
2022-12-04T04:16:38.711Z,23.00
2022-12-04T04:23:08.669Z,22.90
2022-12-04T04:29:20.675Z,22.90
2022-12-04T04:35:34.619Z,22.80
2022-12-04T04:41:49.758Z,22.90
2022-12-04T04:48:02.912Z,22.80
2022-12-04T04:54:15.633Z,22.70
2022-12-04T05:00:26.526Z,22.70
2022-12-04T05:06:39.993Z,22.70
2022-12-04T05:12:48.899Z,22.60
2022-12-04T05:19:18.898Z,22.60
2022-12-04T05:25:28.891Z,22.60
2022-12-04T05:31:43.764Z,22.60
2022-12-04T05:37:55.619Z,22.50
2022-12-04T05:44:11.741Z,22.40
2022-12-04T05:50:25.395Z,22.40
2022-12-04T05:56:38.100Z,22.40
2022-12-04T06:02:54.941Z,22.40
2022-12-04T06:09:02.476Z,22.30
2022-12-04T06:15:15.699Z,22.30
2022-12-04T06:21:25.982Z,22.30
2022-12-04T06:27:41.546Z,22.30
2022-12-04T06:33:52.875Z,22.20
2022-12-04T06:40:07.710Z,22.20
2022-12-04T06:46:18.832Z,22.10
2022-12-04T06:52:31.372Z,22.10
2022-12-04T06:58:42.721Z,22.10
2022-12-04T07:04:55.672Z,22.10
2022-12-04T07:11:06.062Z,22.10
2022-12-04T07:17:15.933Z,22.00
2022-12-04T07:23:27.264Z,22.00
2022-12-04T07:29:39.650Z,22.00
2022-12-04T07:35:48.407Z,21.90
2022-12-04T07:42:04.118Z,21.90
2022-12-04T07:48:15.062Z,21.80
2022-12-04T07:54:23.996Z,21.80
2022-12-04T08:00:35.051Z,21.80
2022-12-04T08:06:48.479Z,21.80
2022-12-04T08:12:59.401Z,21.90
2022-12-04T08:19:13.352Z,22.10
2022-12-04T08:25:26.519Z,22.10
2022-12-04T08:31:42.827Z,21.90
2022-12-04T08:37:55.477Z,21.90
2022-12-04T08:44:06.540Z,21.80
2022-12-04T08:50:22.225Z,21.80
2022-12-04T08:56:33.622Z,21.90
2022-12-04T09:02:44.487Z,22.10
2022-12-04T09:08:55.126Z,22.10
2022-12-04T09:15:05.777Z,21.90
2022-12-04T09:21:17.403Z,21.80
2022-12-04T09:27:28.560Z,21.80
2022-12-04T09:33:43.432Z,21.70
2022-12-04T09:39:53.968Z,21.90
2022-12-04T09:46:07.990Z,22.10
2022-12-04T09:52:26.383Z,22.00
2022-12-04T09:58:41.294Z,21.90
2022-12-04T10:04:52.184Z,21.80
2022-12-04T10:11:09.666Z,21.70
2022-12-04T10:17:45.231Z,21.80
2022-12-04T10:24:04.969Z,22.00
2022-12-04T10:30:23.443Z,22.10
2022-12-04T10:36:37.722Z,21.90
2022-12-04T10:42:47.708Z,21.70
2022-12-04T10:49:00.938Z,21.60
2022-12-04T10:55:14.180Z,21.90
2022-12-04T11:01:31.522Z,22.10
2022-12-04T11:07:43.714Z,22.00
2022-12-04T11:13:55.968Z,21.80
2022-12-04T11:20:19.021Z,21.70
2022-12-04T11:26:40.622Z,21.70
2022-12-04T11:32:50.332Z,22.00
2022-12-04T11:39:12.196Z,22.10
2022-12-04T11:45:27.223Z,21.90
2022-12-04T11:51:46.465Z,21.70
2022-12-04T11:58:00.075Z,21.60
2022-12-04T12:04:39.650Z,21.90
2022-12-04T12:10:52.136Z,22.20
2022-12-04T12:17:08.912Z,22.40
2022-12-04T12:23:29.138Z,22.60
2022-12-04T12:29:58.454Z,22.90
2022-12-04T12:36:11.543Z,23.10
2022-12-04T12:42:26.316Z,23.40
2022-12-04T12:48:39.576Z,23.60
2022-12-04T12:54:53.300Z,23.70
2022-12-04T13:01:08.972Z,23.80
2022-12-04T13:07:26.721Z,23.60
2022-12-04T13:13:42.169Z,23.70
2022-12-04T13:19:54.710Z,23.90
2022-12-04T13:26:10.604Z,24.00
2022-12-04T13:32:36.813Z,23.90
2022-12-04T13:38:58.441Z,24.00
2022-12-04T13:45:12.089Z,24.20
2022-12-04T13:51:41.292Z,24.40
2022-12-04T13:57:59.166Z,24.20
2022-12-04T14:04:10.691Z,23.90
2022-12-04T14:10:37.743Z,23.80
2022-12-04T14:16:51.646Z,24.00
2022-12-04T14:23:02.789Z,24.40
2022-12-04T14:29:19.259Z,24.50
2022-12-04T14:35:33.383Z,24.30
2022-12-04T14:41:42.204Z,24.10
2022-12-04T14:47:59.551Z,23.90
2022-12-04T14:54:16.404Z,24.00
2022-12-04T15:00:28.689Z,24.30
2022-12-04T15:06:45.097Z,24.60
2022-12-04T15:12:54.955Z,24.60
2022-12-04T15:19:06.450Z,24.40
2022-12-04T15:25:26.573Z,24.20
2022-12-04T15:31:37.707Z,24.10
2022-12-04T15:37:52.851Z,24.40
2022-12-04T15:44:03.016Z,24.60
2022-12-04T15:50:28.284Z,24.90
2022-12-04T15:56:38.682Z,25.00
2022-12-04T16:02:50.694Z,24.90
2022-12-04T16:09:04.740Z,24.90
2022-12-04T16:15:19.570Z,24.70
2022-12-04T16:21:36.925Z,24.60
2022-12-04T16:27:51.311Z,24.70
2022-12-04T16:34:04.862Z,24.90
2022-12-04T16:40:21.360Z,24.90
2022-12-04T16:46:33.572Z,24.80
2022-12-04T16:52:43.321Z,24.70
2022-12-04T16:58:56.682Z,24.70
2022-12-04T17:05:14.696Z,24.90
2022-12-04T17:11:23.447Z,25.10
2022-12-04T17:17:33.371Z,25.10
2022-12-04T17:23:46.406Z,25.00
2022-12-04T17:29:58.462Z,24.90
2022-12-04T17:36:15.041Z,24.80
2022-12-04T17:42:23.048Z,25.00
2022-12-04T17:48:34.603Z,25.20
2022-12-04T17:54:51.323Z,25.30
2022-12-04T18:01:14.378Z,25.20
2022-12-04T18:07:23.206Z,25.00
2022-12-04T18:13:31.893Z,24.90
2022-12-04T18:19:43.775Z,24.80
2022-12-04T18:26:02.324Z,24.90
2022-12-04T18:32:18.801Z,25.10
2022-12-04T18:38:29.648Z,25.20
2022-12-04T18:44:38.921Z,25.10
2022-12-04T18:50:49.963Z,25.00
2022-12-04T18:57:03.010Z,24.80
2022-12-04T19:03:14.395Z,25.00
2022-12-04T19:15:39.672Z,25.10
2022-12-04T19:21:53.185Z,24.90
2022-12-04T19:28:07.644Z,24.80
2022-12-04T19:34:19.181Z,24.70
2022-12-04T19:40:30.289Z,24.70
2022-12-04T19:46:43.517Z,24.90
2022-12-04T19:52:56.028Z,25.00
2022-12-04T19:59:13.113Z,24.90
2022-12-04T20:05:26.791Z,24.70
2022-12-04T20:11:40.206Z,24.60
2022-12-04T20:17:58.430Z,24.70
2022-12-04T20:24:13.344Z,24.90
2022-12-04T20:30:28.178Z,24.70
2022-12-04T20:36:48.504Z,24.50
2022-12-04T20:42:59.683Z,24.40
2022-12-04T20:49:20.345Z,24.40
2022-12-04T20:55:25.865Z,24.60
2022-12-04T21:01:39.442Z,24.80
2022-12-04T21:07:52.103Z,24.60
2022-12-04T21:14:23.938Z,24.40
2022-12-04T21:20:39.004Z,24.20
2022-12-04T21:26:52.716Z,24.40
2022-12-04T21:33:06.166Z,24.60
2022-12-04T21:39:18.467Z,24.50
2022-12-04T21:45:27.503Z,24.30
2022-12-04T21:57:50.115Z,24.70
2022-12-04T22:04:05.787Z,24.60
2022-12-04T22:10:23.939Z,24.40
2022-12-04T22:16:36.950Z,24.20
2022-12-04T22:22:45.561Z,24.50
2022-12-04T22:28:58.934Z,24.80
2022-12-04T22:35:08.884Z,24.90
2022-12-04T22:41:22.995Z,24.90
2022-12-04T22:47:34.382Z,24.70
2022-12-04T22:53:44.397Z,24.60
2022-12-04T22:59:55.787Z,24.40
2022-12-04T23:06:11.292Z,24.30
2022-12-04T23:12:22.411Z,24.70
2022-12-04T23:18:32.055Z,24.80
2022-12-04T23:24:44.617Z,24.50
2022-12-04T23:30:57.620Z,24.30
2022-12-04T23:37:17.452Z,24.20
2022-12-04T23:43:28.810Z,24.20
2022-12-04T23:49:41.973Z,24.60
2022-12-04T23:56:00.428Z,24.60
